createdAt,value
2017-05-19T00:00:46.715Z,17.10
2017-05-19T00:01:43.669Z,17.10
2017-05-19T00:02:40.622Z,17.10
2017-05-19T00:03:37.587Z,17.10
2017-05-19T00:04:34.537Z,17.10
2017-05-19T00:05:31.488Z,17.00
2017-05-19T00:06:28.458Z,17.10
2017-05-19T00:07:25.407Z,17.10
2017-05-19T00:08:22.364Z,17.10
2017-05-19T00:09:19.318Z,17.10
2017-05-19T00:10:16.283Z,17.10
2017-05-19T00:11:13.247Z,17.10
2017-05-19T00:12:10.226Z,17.10
2017-05-19T00:13:07.182Z,17.10
2017-05-19T00:14:04.131Z,17.10
2017-05-19T00:15:01.080Z,17.10
2017-05-19T00:15:58.038Z,17.00
2017-05-19T00:16:54.991Z,17.00
2017-05-19T00:17:51.976Z,17.00
2017-05-19T00:18:48.922Z,17.00
2017-05-19T00:19:45.891Z,17.00
2017-05-19T00:20:42.842Z,16.90
2017-05-19T00:21:39.805Z,16.90
2017-05-19T00:22:36.761Z,16.90
2017-05-19T00:23:33.743Z,16.90
2017-05-19T00:24:30.706Z,17.00
2017-05-19T00:25:27.662Z,17.00
2017-05-19T00:26:24.618Z,17.00
2017-05-19T00:27:21.570Z,17.00
2017-05-19T00:28:18.525Z,17.00
2017-05-19T00:29:15.518Z,17.00
2017-05-19T00:30:12.475Z,16.90
2017-05-19T00:31:09.426Z,17.00
2017-05-19T00:32:06.390Z,17.00
2017-05-19T00:33:03.346Z,17.00
2017-05-19T00:34:00.297Z,17.00
2017-05-19T00:34:57.265Z,17.00
2017-05-19T00:35:54.223Z,16.90
2017-05-19T00:36:51.208Z,17.00
2017-05-19T00:37:48.177Z,17.00
2017-05-19T00:38:45.140Z,17.00
2017-05-19T00:39:42.086Z,17.00
2017-05-19T00:40:39.057Z,17.00
2017-05-19T00:41:36.012Z,17.00
2017-05-19T00:42:32.966Z,17.00
2017-05-19T00:43:29.935Z,17.00
2017-05-19T00:44:26.879Z,17.00
2017-05-19T00:45:23.834Z,17.00
2017-05-19T00:46:20.812Z,17.10
2017-05-19T00:47:17.770Z,17.00
2017-05-19T00:48:14.730Z,17.10
2017-05-19T00:49:11.687Z,17.10
2017-05-19T00:50:08.656Z,17.10
2017-05-19T00:51:05.619Z,17.10
2017-05-19T00:52:02.591Z,17.20
2017-05-19T00:52:59.554Z,17.20
2017-05-19T00:53:56.520Z,17.20
2017-05-19T00:54:53.471Z,17.20
2017-05-19T00:55:50.429Z,17.20
2017-05-19T00:56:47.376Z,17.20
2017-05-19T00:57:44.354Z,17.30
2017-05-19T00:58:41.316Z,17.30
2017-05-19T00:59:38.269Z,17.30
2017-05-19T01:00:35.232Z,17.30
2017-05-19T01:01:32.190Z,17.30
2017-05-19T01:02:29.150Z,17.30
2017-05-19T01:03:26.131Z,17.40
2017-05-19T01:04:23.099Z,17.40
2017-05-19T01:05:20.054Z,17.40
2017-05-19T01:06:17.001Z,17.40
2017-05-19T01:07:13.958Z,17.50
2017-05-19T01:08:10.915Z,17.50
2017-05-19T01:09:07.886Z,17.50
2017-05-19T01:10:04.838Z,17.50
2017-05-19T01:11:01.801Z,17.50
2017-05-19T01:11:58.757Z,17.50
2017-05-19T01:12:55.721Z,17.50
2017-05-19T01:13:52.678Z,17.50
2017-05-19T01:14:49.651Z,17.60
2017-05-19T01:15:46.610Z,17.60
2017-05-19T01:16:43.562Z,17.60
2017-05-19T01:17:40.522Z,17.60
2017-05-19T01:18:37.473Z,17.60
2017-05-19T01:19:34.464Z,17.70
2017-05-19T01:20:31.432Z,17.70
2017-05-19T01:21:28.379Z,17.70
2017-05-19T01:22:25.339Z,17.70
2017-05-19T01:23:22.301Z,17.70
2017-05-19T01:24:19.252Z,17.70
2017-05-19T01:25:16.200Z,17.70
2017-05-19T01:26:13.171Z,17.70
2017-05-19T01:27:10.118Z,17.70
2017-05-19T01:28:07.097Z,17.70
2017-05-19T01:29:04.057Z,17.70
2017-05-19T01:30:01.011Z,17.70
2017-05-19T01:30:57.962Z,17.80
2017-05-19T01:31:54.946Z,17.80
2017-05-19T01:32:51.905Z,17.70
2017-05-19T01:33:48.851Z,17.70
2017-05-19T01:34:45.807Z,17.60
2017-05-19T01:35:42.754Z,17.70
2017-05-19T01:36:39.710Z,17.60
2017-05-19T01:37:36.682Z,17.70
2017-05-19T01:38:33.630Z,17.70
2017-05-19T01:39:30.596Z,17.70
2017-05-19T01:40:27.542Z,17.70
2017-05-19T01:41:24.503Z,17.70
2017-05-19T01:42:21.463Z,17.70
2017-05-19T01:43:18.439Z,17.70
2017-05-19T01:44:15.386Z,17.70
2017-05-19T01:45:12.345Z,17.70
2017-05-19T01:46:09.298Z,17.70
2017-05-19T01:47:06.247Z,17.60
2017-05-19T01:48:03.203Z,17.70
2017-05-19T01:49:00.228Z,17.70
2017-05-19T01:49:57.166Z,17.70
2017-05-19T01:50:54.128Z,17.70
2017-05-19T01:51:51.095Z,17.60
2017-05-19T02:13:59.725Z,17.20
2017-05-19T02:14:56.685Z,17.20
2017-05-19T02:15:53.633Z,17.20
2017-05-19T02:16:50.596Z,17.20
2017-05-19T02:17:47.559Z,17.20
2017-05-19T02:18:44.515Z,17.20
2017-05-19T02:19:41.494Z,17.20
2017-05-19T02:20:38.454Z,17.20
2017-05-19T02:21:35.411Z,17.30
2017-05-19T02:22:32.485Z,17.20
2017-05-19T02:23:29.439Z,17.20
2017-05-19T02:24:26.406Z,17.30
2017-05-19T02:25:23.382Z,17.30
2017-05-19T02:26:20.341Z,17.30
2017-05-19T02:27:17.307Z,17.40
2017-05-19T02:28:14.270Z,17.40
2017-05-19T02:29:11.222Z,17.40
2017-05-19T02:30:08.182Z,17.40
2017-05-19T02:31:05.167Z,17.40
2017-05-19T02:32:02.118Z,17.30
2017-05-19T02:32:59.076Z,17.30
2017-05-19T02:33:56.031Z,17.30
2017-05-19T02:34:52.983Z,17.30
2017-05-19T02:35:50.017Z,17.30
2017-05-19T02:36:46.990Z,17.30
2017-05-19T02:37:43.947Z,17.30
2017-05-19T02:38:40.902Z,17.30
2017-05-19T02:39:37.867Z,17.30
2017-05-19T02:40:34.838Z,17.30
2017-05-19T02:41:31.799Z,17.30
2017-05-19T02:42:28.776Z,17.30
2017-05-19T02:43:25.732Z,17.30
2017-05-19T02:44:22.687Z,17.30
2017-05-19T02:45:19.658Z,17.40
2017-05-19T02:46:16.616Z,17.40
2017-05-19T02:47:13.575Z,17.40
2017-05-19T02:48:10.561Z,17.30
2017-05-19T02:49:07.523Z,17.30
2017-05-19T02:50:04.482Z,17.30
2017-05-19T02:51:01.430Z,17.20
2017-05-19T02:51:58.440Z,17.20
2017-05-19T02:52:55.371Z,17.20
2017-05-19T02:53:52.335Z,17.20
2017-05-19T02:54:49.693Z,17.20
2017-05-19T02:55:46.635Z,17.20
2017-05-19T02:56:43.593Z,17.20
2017-05-19T02:57:40.553Z,17.20
2017-05-19T02:58:37.527Z,17.20
2017-05-19T02:59:34.490Z,17.20
2017-05-19T03:00:31.442Z,17.20
2017-05-19T03:01:28.401Z,17.10
2017-05-19T03:02:25.350Z,17.10
2017-05-19T03:03:22.315Z,17.20
2017-05-19T03:04:19.279Z,17.20
2017-05-19T03:05:16.279Z,17.20
2017-05-19T03:06:13.255Z,17.20
2017-05-19T03:07:10.212Z,17.20
2017-05-19T03:08:07.178Z,17.20
2017-05-19T03:09:04.151Z,17.20
2017-05-19T03:10:01.133Z,17.20
2017-05-19T03:10:58.109Z,17.30
2017-05-19T03:11:55.214Z,17.30
2017-05-19T03:12:52.190Z,17.40
2017-05-19T03:13:49.150Z,17.40
2017-05-19T03:14:46.109Z,17.40
2017-05-19T03:15:43.073Z,17.40
2017-05-19T03:16:40.049Z,17.50
2017-05-19T03:17:37.023Z,17.40
2017-05-19T03:18:33.971Z,17.40
2017-05-19T03:19:30.931Z,17.40
2017-05-19T03:20:27.901Z,17.50
2017-05-19T03:21:24.863Z,17.50
2017-05-19T03:22:21.852Z,17.50
2017-05-19T03:23:18.798Z,17.50
2017-05-19T03:24:15.757Z,17.50
2017-05-19T03:25:12.711Z,17.60
2017-05-19T03:26:09.663Z,17.70
2017-05-19T03:27:06.630Z,17.70
2017-05-19T03:28:03.599Z,17.70
2017-05-19T03:29:00.559Z,17.70
2017-05-19T03:29:57.518Z,17.70
2017-05-19T03:30:54.483Z,17.80
2017-05-19T03:31:51.438Z,17.80
2017-05-19T03:32:48.544Z,17.80
2017-05-19T03:33:45.529Z,17.70
2017-05-19T03:34:42.491Z,17.60
2017-05-19T03:35:39.467Z,17.60
2017-05-19T03:36:36.408Z,17.60
2017-05-19T03:37:33.378Z,17.60
2017-05-19T03:38:30.336Z,17.50
2017-05-19T03:39:27.306Z,17.50
2017-05-19T03:40:24.313Z,17.50
2017-05-19T03:41:21.285Z,17.50
2017-05-19T03:42:18.238Z,17.50
2017-05-19T03:43:15.188Z,17.50
2017-05-19T03:44:12.144Z,17.50
2017-05-19T03:45:09.130Z,17.50
2017-05-19T03:46:06.098Z,17.50
2017-05-19T03:47:03.050Z,17.50
2017-05-19T03:48:00.006Z,17.50
2017-05-19T03:48:56.958Z,17.50
2017-05-19T03:49:54.478Z,17.40
2017-05-19T03:50:51.486Z,17.50
2017-05-19T03:51:48.426Z,17.40
2017-05-19T03:52:45.465Z,17.40
2017-05-19T03:53:42.427Z,17.40
2017-05-19T03:54:39.401Z,17.50
2017-05-19T03:55:36.352Z,17.40
2017-05-19T03:56:33.314Z,17.40
2017-05-19T03:57:30.289Z,17.30
2017-05-19T03:58:27.247Z,17.30
2017-05-19T03:59:24.203Z,17.30
2017-05-19T04:00:21.179Z,17.20
2017-05-19T04:01:18.136Z,17.20
2017-05-19T04:02:15.117Z,17.30
2017-05-19T04:03:12.078Z,17.20
2017-05-19T04:04:09.047Z,17.20
2017-05-19T04:05:06.011Z,17.20
2017-05-19T04:06:02.960Z,17.20
2017-05-19T04:06:59.922Z,17.20
2017-05-19T04:07:56.906Z,17.20
2017-05-19T04:08:53.895Z,17.30
2017-05-19T04:09:50.856Z,17.30
2017-05-19T04:10:47.817Z,17.30
2017-05-19T04:11:44.788Z,17.30
2017-05-19T04:12:41.762Z,17.30
2017-05-19T04:13:38.768Z,17.30
2017-05-19T04:14:35.748Z,17.30
2017-05-19T04:15:32.710Z,17.30
2017-05-19T04:16:29.700Z,17.40
2017-05-19T04:17:26.669Z,17.40
2017-05-19T04:18:24.069Z,17.40
2017-05-19T04:19:21.057Z,17.40
2017-05-19T04:20:18.022Z,17.40
2017-05-19T04:21:14.966Z,17.50
2017-05-19T04:22:11.939Z,17.50
2017-05-19T04:23:08.903Z,17.40
2017-05-19T04:24:05.854Z,17.50
2017-05-19T04:25:02.827Z,17.50
2017-05-19T04:25:59.779Z,17.50
2017-05-19T04:26:56.765Z,17.50
2017-05-19T04:27:53.712Z,17.40
2017-05-19T04:28:51.338Z,17.40
2017-05-19T04:29:48.286Z,17.40
2017-05-19T04:30:45.297Z,17.30
2017-05-19T04:31:42.260Z,17.40
2017-05-19T04:32:39.230Z,17.30
2017-05-19T04:33:36.221Z,17.40
2017-05-19T04:34:33.189Z,17.40
2017-05-19T04:35:30.150Z,17.40
2017-05-19T04:36:27.159Z,17.40
2017-05-19T04:37:24.114Z,17.30
2017-05-19T04:38:21.082Z,17.40
2017-05-19T04:39:18.040Z,17.40
2017-05-19T04:40:14.994Z,17.40
2017-05-19T04:41:11.966Z,17.40
2017-05-19T04:42:08.950Z,17.50
2017-05-19T04:43:05.907Z,17.50
2017-05-19T04:44:02.872Z,17.50
2017-05-19T04:44:59.827Z,17.50
2017-05-19T04:45:56.815Z,17.60
2017-05-19T04:46:53.768Z,17.60
2017-05-19T04:47:51.521Z,17.60
2017-05-19T04:48:48.662Z,17.70
2017-05-19T04:49:45.615Z,17.60
2017-05-19T04:50:42.609Z,17.60
2017-05-19T04:51:39.554Z,17.60
2017-05-19T04:52:36.551Z,17.60
2017-05-19T04:53:33.547Z,17.50
2017-05-19T04:54:30.511Z,17.50
2017-05-19T04:55:27.483Z,17.50
2017-05-19T04:56:24.448Z,17.50
2017-05-19T04:57:21.410Z,17.50
2017-05-19T04:58:19.183Z,17.50
2017-05-19T04:59:16.170Z,17.50
2017-05-19T05:00:13.134Z,17.50
2017-05-19T05:01:10.481Z,17.50
2017-05-19T05:02:07.436Z,17.50
2017-05-19T05:03:04.430Z,17.50
2017-05-19T05:04:01.398Z,17.40
2017-05-19T05:04:59.298Z,17.40
2017-05-19T05:05:56.250Z,17.40
2017-05-19T05:06:56.170Z,17.40
2017-05-19T05:07:53.387Z,17.40
2017-05-19T05:08:50.357Z,17.40
2017-05-19T05:09:48.757Z,17.40
2017-05-19T05:10:45.763Z,17.40
2017-05-19T05:11:42.728Z,17.40
2017-05-19T05:12:41.999Z,17.40
2017-05-19T05:13:38.963Z,17.50
2017-05-19T05:14:37.131Z,17.50
2017-05-19T05:15:35.277Z,17.50
2017-05-19T05:16:32.262Z,17.50
2017-05-19T05:17:30.271Z,17.50
2017-05-19T05:18:31.569Z,17.50
2017-05-19T05:19:28.550Z,17.60
2017-05-19T05:20:25.515Z,17.60
2017-05-19T05:21:23.712Z,17.60
2017-05-19T05:22:21.936Z,17.60
2017-05-19T05:23:18.902Z,17.70
2017-05-19T05:24:15.874Z,17.70
2017-05-19T05:25:12.864Z,17.70
2017-05-19T05:26:09.827Z,17.70
2017-05-19T05:27:07.648Z,17.60
2017-05-19T05:28:04.661Z,17.60
2017-05-19T05:29:01.618Z,17.60
2017-05-19T05:29:58.592Z,17.60
2017-05-19T05:30:56.378Z,17.60
2017-05-19T05:31:54.510Z,17.60
2017-05-19T05:32:52.156Z,17.60
2017-05-19T05:33:49.327Z,17.60
2017-05-19T05:34:46.970Z,17.60
2017-05-19T05:35:43.928Z,17.60
2017-05-19T05:36:40.878Z,17.60
2017-05-19T05:37:37.844Z,17.60
2017-05-19T05:38:34.819Z,17.70
2017-05-19T05:39:31.803Z,17.70
2017-05-19T05:40:28.789Z,17.70
2017-05-19T05:41:26.571Z,17.80
2017-05-19T05:42:23.535Z,17.80
2017-05-19T05:43:20.501Z,17.80
2017-05-19T05:44:17.443Z,17.90
2017-05-19T05:45:14.422Z,17.90
2017-05-19T05:46:11.378Z,17.90
2017-05-19T05:47:08.458Z,17.90
2017-05-19T05:48:05.432Z,17.90
2017-05-19T05:49:02.435Z,17.90
2017-05-19T05:49:59.409Z,18.00
2017-05-19T05:50:56.381Z,18.00
2017-05-19T05:51:53.459Z,17.90
2017-05-19T05:52:50.423Z,17.90
2017-05-19T05:53:47.828Z,17.90
2017-05-19T05:54:44.775Z,17.90
2017-05-19T05:55:41.748Z,17.90
2017-05-19T05:56:38.725Z,17.90
2017-05-19T05:57:35.699Z,17.90
2017-05-19T05:58:32.654Z,17.90
2017-05-19T05:59:29.711Z,17.90
2017-05-19T06:00:26.678Z,17.90
2017-05-19T06:01:23.626Z,18.00
2017-05-19T06:02:20.610Z,18.00
2017-05-19T06:03:17.556Z,18.00
2017-05-19T06:04:14.529Z,18.00
2017-05-19T06:05:11.485Z,18.00
2017-05-19T06:06:08.447Z,18.00
2017-05-19T06:07:05.400Z,18.10
2017-05-19T06:08:02.387Z,18.00
2017-05-19T06:08:59.380Z,18.00
2017-05-19T06:09:56.337Z,18.10
2017-05-19T06:10:53.296Z,18.10
2017-05-19T06:11:50.263Z,18.10
2017-05-19T06:12:47.225Z,18.00
2017-05-19T06:13:44.195Z,18.00
2017-05-19T06:14:41.149Z,18.00
2017-05-19T06:15:38.098Z,18.00
2017-05-19T06:16:35.051Z,18.00
2017-05-19T06:17:32.017Z,18.00
2017-05-19T06:18:28.972Z,18.00
2017-05-19T06:19:25.957Z,18.00
2017-05-19T06:20:22.921Z,18.00
2017-05-19T06:21:19.887Z,18.00
2017-05-19T06:22:16.839Z,18.00
2017-05-19T06:23:13.810Z,18.10
2017-05-19T06:24:10.758Z,18.10
2017-05-19T06:25:07.736Z,18.10
2017-05-19T06:26:04.687Z,18.10
2017-05-19T06:27:01.650Z,18.10
2017-05-19T06:27:58.602Z,18.20
2017-05-19T06:28:55.566Z,18.20
2017-05-19T06:29:52.516Z,18.20
2017-05-19T06:30:49.491Z,18.20
2017-05-19T06:31:46.446Z,18.20
2017-05-19T06:32:43.407Z,18.20
2017-05-19T06:33:40.370Z,18.20
2017-05-19T06:34:37.347Z,18.20
2017-05-19T06:35:34.315Z,18.20
2017-05-19T06:36:31.303Z,18.20
2017-05-19T06:37:28.261Z,18.20
2017-05-19T06:38:25.227Z,18.20
2017-05-19T06:39:22.180Z,18.20
2017-05-19T06:40:19.154Z,18.20
2017-05-19T06:41:16.121Z,18.10
2017-05-19T06:42:13.081Z,18.10
2017-05-19T06:43:10.047Z,18.10
2017-05-19T06:44:06.991Z,18.10
2017-05-19T06:45:03.952Z,18.10
2017-05-19T06:46:00.922Z,18.10
2017-05-19T06:46:57.922Z,18.10
2017-05-19T06:47:54.887Z,18.10
2017-05-19T06:48:51.838Z,18.10
2017-05-19T06:49:48.798Z,18.10
2017-05-19T06:50:45.739Z,18.10
2017-05-19T06:51:42.691Z,18.10
2017-05-19T06:52:39.675Z,18.10
2017-05-19T06:53:36.618Z,18.00
2017-05-19T06:54:33.579Z,18.00
2017-05-19T06:55:30.530Z,18.00
2017-05-19T06:56:27.487Z,18.00
2017-05-19T06:57:24.443Z,18.00
2017-05-19T06:58:21.411Z,18.00
2017-05-19T06:59:18.358Z,18.00
2017-05-19T07:00:15.342Z,18.00
2017-05-19T07:01:12.299Z,18.00
2017-05-19T07:02:09.249Z,18.00
2017-05-19T07:03:06.200Z,18.00
2017-05-19T07:04:03.190Z,18.00
2017-05-19T07:05:00.146Z,18.00
2017-05-19T07:05:57.109Z,18.10
2017-05-19T07:06:54.054Z,18.10
2017-05-19T07:07:51.010Z,18.10
2017-05-19T07:08:47.969Z,18.10
2017-05-19T07:09:44.938Z,18.20
2017-05-19T07:10:41.951Z,18.20
2017-05-19T07:11:38.910Z,18.20
2017-05-19T07:12:35.866Z,18.30
2017-05-19T07:13:32.899Z,18.30
2017-05-19T07:14:29.846Z,18.30
2017-05-19T07:15:26.840Z,18.30
2017-05-19T07:16:23.794Z,18.40
2017-05-19T07:17:20.763Z,18.30
2017-05-19T07:18:17.723Z,18.30
2017-05-19T07:19:14.695Z,18.30
2017-05-19T07:20:11.638Z,18.40
2017-05-19T07:21:08.863Z,18.40
2017-05-19T07:22:05.822Z,18.40
2017-05-19T07:23:02.782Z,18.40
2017-05-19T07:23:59.800Z,18.40
2017-05-19T07:24:56.726Z,18.50
2017-05-19T07:25:53.686Z,18.50
2017-05-19T07:26:50.644Z,18.40
2017-05-19T07:27:47.759Z,18.40
2017-05-19T07:28:44.706Z,18.50
2017-05-19T07:29:41.680Z,18.50
2017-05-19T07:30:38.638Z,18.50
2017-05-19T07:31:35.607Z,18.50
2017-05-19T07:32:32.554Z,18.60
2017-05-19T07:33:29.518Z,18.50
2017-05-19T07:34:26.511Z,18.50
2017-05-19T07:35:23.481Z,18.40
2017-05-19T07:36:20.455Z,18.30
2017-05-19T07:37:17.416Z,18.20
2017-05-19T07:38:14.378Z,18.10
2017-05-19T07:39:11.331Z,17.90
2017-05-19T07:40:08.307Z,17.70
2017-05-19T07:41:05.255Z,17.50
2017-05-19T07:42:02.227Z,17.30
2017-05-19T07:42:59.194Z,17.20
2017-05-19T07:43:56.327Z,17.10
2017-05-19T07:44:53.281Z,17.00
2017-05-19T07:45:50.243Z,16.90
2017-05-19T07:46:47.208Z,16.90
2017-05-19T07:47:44.187Z,16.90
2017-05-19T07:48:41.135Z,16.80
2017-05-19T07:49:38.090Z,16.80
2017-05-19T07:50:35.046Z,16.70
2017-05-19T07:51:32.018Z,16.70
2017-05-19T07:52:28.970Z,16.60
2017-05-19T07:53:25.957Z,16.50
2017-05-19T07:54:22.911Z,16.50
2017-05-19T07:55:19.911Z,16.40
2017-05-19T07:56:16.866Z,16.30
2017-05-19T07:57:13.823Z,16.30
2017-05-19T07:58:10.815Z,16.20
2017-05-19T07:59:07.786Z,16.10
2017-05-19T08:00:04.750Z,16.00
2017-05-19T08:01:01.743Z,16.00
2017-05-19T08:01:58.701Z,15.90
2017-05-19T08:02:55.687Z,15.90
2017-05-19T08:03:52.646Z,15.80
2017-05-19T08:04:50.046Z,15.70
2017-05-19T08:05:47.027Z,15.70
2017-05-19T08:06:44.015Z,15.60
2017-05-19T08:07:40.979Z,15.60
2017-05-19T08:08:37.950Z,15.60
2017-05-19T08:09:34.921Z,15.60
2017-05-19T08:10:31.883Z,15.50
2017-05-19T08:11:28.855Z,15.50
2017-05-19T08:12:25.836Z,15.50
2017-05-19T08:13:22.815Z,15.40
2017-05-19T08:14:19.771Z,15.40
2017-05-19T08:15:16.753Z,15.40
2017-05-19T08:16:13.704Z,15.40
2017-05-19T08:17:10.658Z,15.50
2017-05-19T08:18:07.650Z,15.50
2017-05-19T08:19:04.878Z,15.50
2017-05-19T08:20:01.846Z,15.50
2017-05-19T08:20:58.803Z,15.60
2017-05-19T08:21:55.756Z,15.60
2017-05-19T08:22:52.720Z,15.50
2017-05-19T08:23:50.307Z,15.50
2017-05-19T08:24:47.275Z,15.50
2017-05-19T08:25:44.236Z,15.40
2017-05-19T08:26:41.185Z,15.40
2017-05-19T08:27:38.143Z,15.40
2017-05-19T08:28:35.103Z,15.40
2017-05-19T08:29:32.078Z,15.30
2017-05-19T08:30:29.033Z,15.40
2017-05-19T08:31:25.987Z,15.30
2017-05-19T08:32:22.943Z,15.30
2017-05-19T08:33:19.906Z,15.20
2017-05-19T08:34:16.869Z,15.20
2017-05-19T08:35:13.853Z,15.10
2017-05-19T08:36:10.828Z,15.20
2017-05-19T08:37:07.779Z,15.10
2017-05-19T08:38:04.753Z,15.00
2017-05-19T08:39:01.724Z,15.00
2017-05-19T08:39:58.714Z,15.00
2017-05-19T08:40:55.671Z,15.10
2017-05-19T08:41:52.657Z,15.10
2017-05-19T08:42:49.635Z,15.10
2017-05-19T08:43:46.585Z,15.00
2017-05-19T08:44:43.546Z,15.00
2017-05-19T08:45:40.499Z,15.00
2017-05-19T08:46:37.461Z,15.00
2017-05-19T08:47:34.434Z,15.00
2017-05-19T08:48:31.416Z,15.00
2017-05-19T08:49:28.368Z,15.00
2017-05-19T08:50:25.445Z,15.10
2017-05-19T08:51:22.410Z,15.10
2017-05-19T08:52:19.359Z,15.10
2017-05-19T08:53:16.313Z,15.20
2017-05-19T08:54:13.290Z,15.10
2017-05-19T08:55:10.263Z,15.20
2017-05-19T08:56:07.212Z,15.10
2017-05-19T08:57:04.179Z,15.10
2017-05-19T08:58:01.127Z,15.10
2017-05-19T08:58:58.089Z,15.10
2017-05-19T08:59:55.074Z,15.10
2017-05-19T09:00:52.027Z,15.10
2017-05-19T09:01:48.977Z,15.10
2017-05-19T09:02:45.947Z,15.10
2017-05-19T09:03:42.898Z,15.10
2017-05-19T09:04:39.858Z,15.10
2017-05-19T09:05:36.832Z,15.10
2017-05-19T09:06:33.782Z,15.10
2017-05-19T09:07:30.735Z,15.10
2017-05-19T09:08:27.687Z,15.20
2017-05-19T09:09:24.664Z,15.20
2017-05-19T09:10:21.622Z,15.20
2017-05-19T09:11:18.611Z,15.10
2017-05-19T09:12:15.574Z,15.10
2017-05-19T09:13:12.538Z,15.10
2017-05-19T09:14:09.523Z,15.10
2017-05-19T09:15:06.470Z,15.10
2017-05-19T09:16:03.422Z,15.10
2017-05-19T09:17:00.402Z,15.00
2017-05-19T09:17:57.486Z,15.00
2017-05-19T09:18:54.425Z,14.90
2017-05-19T09:19:51.389Z,15.00
2017-05-19T09:20:48.351Z,15.00
2017-05-19T09:21:45.304Z,15.00
2017-05-19T09:22:42.281Z,15.00
2017-05-19T09:23:39.254Z,15.00
2017-05-19T09:24:36.211Z,15.00
2017-05-19T09:25:33.203Z,15.00
2017-05-19T09:26:30.166Z,15.00
2017-05-19T09:27:27.130Z,15.10
2017-05-19T09:28:24.083Z,15.10
2017-05-19T09:29:21.051Z,15.10
2017-05-19T09:30:18.006Z,15.10
2017-05-19T09:31:14.974Z,15.10
2017-05-19T09:32:11.933Z,15.10
2017-05-19T09:33:08.940Z,15.00
2017-05-19T09:34:05.891Z,15.10
2017-05-19T09:35:02.853Z,15.00
2017-05-19T09:35:59.814Z,15.00
2017-05-19T09:36:56.796Z,15.00
2017-05-19T09:37:53.753Z,15.00
2017-05-19T09:38:50.709Z,15.10
2017-05-19T09:39:47.670Z,15.00
2017-05-19T09:40:44.725Z,15.00
2017-05-19T09:41:41.654Z,15.10
2017-05-19T09:42:38.626Z,15.00
2017-05-19T09:43:35.571Z,15.00
2017-05-19T09:44:32.538Z,15.00
2017-05-19T09:45:29.504Z,15.10
2017-05-19T09:46:26.458Z,15.10
2017-05-19T09:47:23.434Z,15.20
2017-05-19T09:48:20.385Z,15.20
2017-05-19T09:49:17.347Z,15.20
2017-05-19T09:50:14.302Z,15.20
2017-05-19T09:51:11.260Z,15.30
2017-05-19T09:52:08.224Z,15.30
2017-05-19T09:53:05.217Z,15.30
2017-05-19T09:54:02.179Z,15.30
2017-05-19T09:54:59.151Z,15.30
2017-05-19T09:55:56.103Z,15.30
2017-05-19T09:56:53.051Z,15.30
2017-05-19T09:57:50.338Z,15.30
2017-05-19T09:58:47.293Z,15.30
2017-05-19T09:59:44.267Z,15.30
2017-05-19T10:00:41.246Z,15.30
2017-05-19T10:01:38.195Z,15.20
2017-05-19T10:02:35.151Z,15.20
2017-05-19T10:03:32.119Z,15.30
2017-05-19T10:04:29.077Z,15.30
2017-05-19T10:05:26.036Z,15.20
2017-05-19T10:06:23.002Z,15.30
2017-05-19T10:07:19.975Z,15.30
2017-05-19T10:08:17.159Z,15.30
2017-05-19T10:09:14.132Z,15.30
2017-05-19T10:10:11.087Z,15.30
2017-05-19T10:11:08.051Z,15.30
2017-05-19T10:12:05.133Z,15.20
2017-05-19T10:13:02.094Z,15.30
2017-05-19T10:13:59.047Z,15.30
2017-05-19T10:14:56.010Z,15.30
2017-05-19T10:15:52.970Z,15.30
2017-05-19T10:16:49.926Z,15.20
2017-05-19T10:17:46.895Z,15.30
2017-05-19T10:18:44.653Z,15.20
2017-05-19T10:19:41.602Z,15.30
2017-05-19T10:20:38.559Z,15.20
2017-05-19T10:21:35.519Z,15.20
2017-05-19T10:22:32.502Z,15.20
2017-05-19T10:23:29.458Z,15.20
2017-05-19T10:24:26.420Z,15.20
2017-05-19T10:25:23.377Z,15.20
2017-05-19T10:26:20.348Z,15.10
2017-05-19T10:27:17.304Z,15.10
2017-05-19T10:28:14.280Z,15.10
2017-05-19T10:29:11.232Z,15.20
2017-05-19T10:30:08.201Z,15.10
2017-05-19T10:31:05.152Z,15.10
2017-05-19T10:32:02.100Z,15.00
2017-05-19T10:32:59.059Z,15.00
2017-05-19T10:33:56.035Z,15.00
2017-05-19T10:34:52.987Z,15.00
2017-05-19T10:35:50.046Z,15.00
2017-05-19T10:36:47.000Z,15.00
2017-05-19T10:37:43.958Z,14.90
2017-05-19T10:38:40.922Z,15.00
2017-05-19T10:39:37.904Z,15.00
2017-05-19T10:40:34.847Z,15.10
2017-05-19T10:41:31.810Z,15.20
2017-05-19T10:42:28.792Z,15.20
2017-05-19T10:43:25.766Z,15.20
2017-05-19T10:44:22.730Z,15.20
2017-05-19T10:45:19.788Z,15.30
2017-05-19T10:46:16.762Z,15.30
2017-05-19T10:47:13.720Z,15.30
2017-05-19T10:48:10.686Z,15.30
2017-05-19T10:49:07.644Z,15.30
2017-05-19T10:50:04.616Z,15.20
2017-05-19T10:51:03.135Z,15.20
2017-05-19T10:52:00.123Z,15.20
2017-05-19T10:52:57.073Z,15.20
2017-05-19T10:53:54.027Z,15.20
2017-05-19T10:54:50.993Z,15.20
2017-05-19T10:55:47.954Z,15.20
2017-05-19T10:56:44.930Z,15.20
2017-05-19T10:57:41.894Z,15.10
2017-05-19T10:58:38.850Z,15.10
2017-05-19T10:59:35.809Z,15.10
2017-05-19T11:00:32.776Z,15.10
2017-05-19T11:01:29.731Z,15.10
2017-05-19T11:02:26.714Z,15.10
2017-05-19T11:03:23.676Z,15.10
2017-05-19T11:04:20.631Z,15.10
2017-05-19T11:05:17.596Z,15.10
2017-05-19T11:06:14.563Z,15.10
2017-05-19T11:07:11.534Z,15.10
2017-05-19T11:08:08.525Z,15.20
2017-05-19T11:09:05.525Z,15.10
2017-05-19T11:10:02.487Z,15.20
2017-05-19T11:10:59.455Z,15.20
2017-05-19T11:11:56.402Z,15.20
2017-05-19T11:12:53.368Z,15.30
2017-05-19T11:13:50.342Z,15.20
2017-05-19T11:14:47.529Z,15.20
2017-05-19T11:15:44.520Z,15.20
2017-05-19T11:16:41.470Z,15.20
2017-05-19T11:17:38.436Z,15.30
2017-05-19T11:18:35.395Z,15.20
2017-05-19T11:19:32.415Z,15.20
2017-05-19T11:20:29.450Z,15.20
2017-05-19T11:21:26.413Z,15.20
2017-05-19T11:22:23.391Z,15.20
2017-05-19T11:23:20.361Z,15.10
2017-05-19T11:24:17.538Z,15.10
2017-05-19T11:25:14.517Z,15.10
2017-05-19T11:26:11.483Z,15.20
2017-05-19T11:27:08.476Z,15.20
2017-05-19T11:28:05.443Z,15.10
2017-05-19T11:29:02.417Z,15.20
2017-05-19T11:29:59.390Z,15.20
2017-05-19T11:30:57.137Z,15.20
2017-05-19T11:31:54.108Z,15.20
2017-05-19T11:32:51.062Z,15.30
2017-05-19T11:33:48.063Z,15.30
2017-05-19T11:34:45.024Z,15.30
2017-05-19T11:35:41.991Z,15.20
2017-05-19T11:36:38.972Z,15.20
2017-05-19T11:37:35.927Z,15.20
2017-05-19T11:38:32.934Z,15.20
2017-05-19T11:39:29.906Z,15.20
2017-05-19T11:40:26.875Z,15.10
2017-05-19T11:41:23.847Z,15.10
2017-05-19T11:42:20.802Z,15.10
2017-05-19T11:43:17.762Z,15.10
2017-05-19T11:44:14.713Z,15.10
2017-05-19T11:45:11.671Z,15.10
2017-05-19T11:46:08.636Z,15.10
2017-05-19T11:47:05.627Z,15.00
2017-05-19T11:48:02.591Z,15.10
2017-05-19T11:48:59.633Z,15.00
2017-05-19T11:49:56.583Z,15.10
2017-05-19T11:50:53.563Z,15.00
2017-05-19T11:51:50.554Z,15.00
2017-05-19T11:52:47.505Z,15.10
2017-05-19T11:53:44.473Z,15.10
2017-05-19T11:54:41.456Z,15.10
2017-05-19T11:55:38.424Z,15.20
2017-05-19T11:56:35.388Z,15.20
2017-05-19T11:57:32.358Z,15.20
2017-05-19T11:58:29.314Z,15.20
2017-05-19T11:59:26.284Z,15.10
2017-05-19T12:00:23.258Z,15.20
2017-05-19T12:01:20.269Z,15.20
2017-05-19T12:02:17.227Z,15.20
2017-05-19T12:03:14.198Z,15.20
2017-05-19T12:04:11.174Z,15.20
2017-05-19T12:05:08.172Z,15.20
2017-05-19T12:06:05.164Z,15.20
2017-05-19T12:07:02.129Z,15.20
2017-05-19T12:07:59.091Z,15.20
2017-05-19T12:08:56.058Z,15.20
2017-05-19T12:09:53.014Z,15.20
2017-05-19T12:10:49.983Z,15.10
2017-05-19T12:11:46.974Z,15.00
2017-05-19T12:12:43.930Z,15.00
2017-05-19T12:13:40.882Z,15.10
2017-05-19T12:14:37.850Z,15.10
2017-05-19T12:15:34.835Z,15.10
2017-05-19T12:16:31.824Z,15.10
2017-05-19T12:17:28.810Z,15.00
2017-05-19T12:18:25.782Z,15.00
2017-05-19T12:19:22.762Z,15.00
2017-05-19T12:20:19.715Z,15.00
2017-05-19T12:21:16.719Z,15.00
2017-05-19T12:22:13.679Z,15.00
2017-05-19T12:23:10.647Z,14.90
2017-05-19T12:24:07.639Z,14.90
2017-05-19T12:25:04.598Z,14.90
2017-05-19T12:26:01.555Z,14.90
2017-05-19T12:26:58.514Z,15.00
2017-05-19T12:27:55.493Z,15.10
2017-05-19T12:28:52.446Z,15.00
2017-05-19T12:29:49.446Z,15.00
2017-05-19T12:30:46.422Z,15.00
2017-05-19T12:31:43.569Z,15.00
2017-05-19T12:32:40.539Z,15.00
2017-05-19T12:33:37.493Z,15.10
2017-05-19T12:34:34.456Z,15.10
2017-05-19T12:35:31.412Z,15.10